Time;durP1;ratioP1;P1;durP2;ratioP2;P2;SDS_P1;SDS_P2;PMS_P1;PMS_P2;Temp;Humidity;BMP_temperature;BMP_pressure;BME280_temperature;BME280_humidity;BME280_pressure;Samples;Min_cycle;Max_cycle;Signal;HPM_P1;HPM_P2
2022/01/06 00:00:12;;;;;;;;;;;2.90;99.90;;;;;;5134332;27;20625;-80
2022/01/06 00:02:39;;;;;;;17.33;2.50;;;2.90;99.90;;;;;;5149608;27;20399;-81
2022/01/06 00:05:05;;;;;;;15.93;3.20;;;2.90;99.90;;;;;;5114653;27;20485;-81
2022/01/06 00:07:32;;;;;;;11.60;1.92;;;2.90;99.90;;;;;;5123268;27;20096;-81
2022/01/06 00:09:59;;;;;;;13.77;2.22;;;2.80;99.90;;;;;;5113884;27;20461;-81
2022/01/06 00:12:33;;;;;;;15.13;2.42;;;2.70;99.90;;;;;;5097884;27;20099;-80
2022/01/06 00:15:22;;;;;;;17.33;2.55;;;3.10;99.90;;;;;;5113535;27;20051;-81
2022/01/06 00:25:32;;;;;;;15.95;2.30;;;2.60;99.90;;;;;;5138269;27;20050;-81
2022/01/06 00:27:58;;;;;;;14.45;2.75;;;2.60;99.90;;;;;;5154362;27;20054;-81
2022/01/06 00:30:24;;;;;;;9.30;1.52;;;2.60;99.90;;;;;;5133371;27;20061;-80
2022/01/06 00:32:50;;;;;;;;;;;2.60;99.90;;;;;;5134951;27;20102;-80
2022/01/06 00:35:16;;;;;;;10.52;1.70;;;2.50;99.90;;;;;;5131489;27;19952;-80
2022/01/06 00:37:42;;;;;;;10.20;1.58;;;2.50;99.90;;;;;;5100757;27;20080;-80
2022/01/06 00:40:08;;;;;;;14.00;1.92;;;2.50;99.90;;;;;;5135454;27;20082;-81
2022/01/06 00:42:34;;;;;;;11.57;2.28;;;2.50;99.90;;;;;;5155233;27;20046;-81
2022/01/06 00:44:59;;;;;;;13.85;2.08;;;2.40;99.90;;;;;;5154205;27;20499;-81
2022/01/06 00:47:25;;;;;;;18.98;2.47;;;2.40;99.90;;;;;;5151127;27;20082;-81
2022/01/06 00:49:51;;;;;;;8.68;2.20;;;2.40;99.90;;;;;;5133926;27;20091;-80
2022/01/06 00:52:16;;;;;;;13.43;2.95;;;2.30;99.90;;;;;;5134121;27;20049;-81
2022/01/06 00:54:42;;;;;;;12.00;1.90;;;2.30;99.90;;;;;;5133669;27;20360;-81
2022/01/06 00:57:08;;;;;;;13.52;2.33;;;2.20;99.90;;;;;;5142960;27;20050;-81
2022/01/06 00:59:34;;;;;;;12.13;1.95;;;2.30;99.90;;;;;;5132828;27;20057;-80
2022/01/06 01:02:00;;;;;;;19.60;2.38;;;2.50;99.90;;;;;;5133800;27;20046;-81
2022/01/06 01:04:26;;;;;;;15.10;1.77;;;2.20;99.90;;;;;;5134685;27;20395;-81
2022/01/06 01:06:51;;;;;;;11.35;3.42;;;2.20;99.90;;;;;;5117656;27;20081;-81
2022/01/06 01:09:17;;;;;;;14.77;2.17;;;2.20;99.90;;;;;;5133243;27;20178;-80
2022/01/06 01:11:43;;;;;;;11.02;1.83;;;2.10;99.90;;;;;;5134372;27;20042;-80
2022/01/06 01:14:19;;;;;;;18.42;2.38;;;2.10;99.90;;;;;;5132249;27;20071;-81
2022/01/06 01:16:58;;;;;;;13.35;2.30;;;2.10;99.90;;;;;;5134112;27;20111;-80
2022/01/06 01:19:25;;;;;;;21.10;2.20;;;2.10;99.90;;;;;;5124942;27;20054;-81
2022/01/06 01:21:51;;;;;;;15.93;2.20;;;2.10;99.90;;;;;;5096835;27;20151;-80
2022/01/06 01:24:17;;;;;;;23.45;2.63;;;2.20;99.90;;;;;;5128942;27;20043;-81
2022/01/06 01:26:43;;;;;;;;;;;2.30;99.90;;;;;;5134599;27;20047;-80
2022/01/06 01:29:13;;;;;;;16.05;1.90;;;2.20;99.90;;;;;;5111066;27;19946;-81
2022/01/06 01:31:45;;;;;;;20.73;2.25;;;2.30;99.90;;;;;;5113296;28;20139;-81
2022/01/06 01:34:12;;;;;;;17.30;2.67;;;2.30;99.90;;;;;;5096960;28;20055;-81
2022/01/06 01:36:38;;;;;;;19.85;2.72;;;2.20;99.90;;;;;;5096669;28;20095;-81
2022/01/06 01:39:04;;;;;;;17.17;2.28;;;2.50;99.90;;;;;;5095653;27;20039;-81
2022/01/06 01:41:29;;;;;;;16.50;2.65;;;2.20;99.90;;;;;;5113512;28;20043;-81
2022/01/06 01:43:57;;;;;;;17.30;2.20;;;2.10;99.90;;;;;;5112134;28;20085;-81
2022/01/06 01:46:30;;;;;;;16.33;2.40;;;2.30;99.90;;;;;;5112410;28;20058;-81
2022/01/06 01:49:47;;;;;;;18.45;2.20;;;2.10;99.90;;;;;;5085113;27;20442;-80
2022/01/06 01:51:44;;;;;;;22.33;2.60;;;2.10;99.90;;;;;;5102467;28;20047;-81
2022/01/06 01:54:10;;;;;;;12.77;2.40;;;1.90;99.90;;;;;;5112530;28;20472;-80
2022/01/06 01:56:37;;;;;;;23.10;2.65;;;1.90;99.90;;;;;;5113376;28;20091;-80
2022/01/06 01:59:03;;;;;;;22.35;2.95;;;1.80;99.90;;;;;;5097414;27;22342;-81
2022/01/06 02:01:29;;;;;;;16.38;2.22;;;1.80;99.90;;;;;;5134140;27;20049;-81
2022/01/06 02:03:54;;;;;;;19.58;2.50;;;1.70;99.90;;;;;;5137979;27;20035;-80
2022/01/06 02:06:20;;;;;;;17.75;3.15;;;1.70;99.90;;;;;;5103596;27;20086;-81
2022/01/06 02:08:46;;;;;;;18.63;2.22;;;1.60;99.90;;;;;;5137597;27;20057;-80
2022/01/06 02:11:12;;;;;;;19.70;3.42;;;2.10;99.90;;;;;;5118854;27;20043;-81
2022/01/06 02:13:49;;;;;;;20.20;2.90;;;1.60;99.90;;;;;;5115743;27;20078;-81
2022/01/06 02:16:20;;;;;;;21.30;2.72;;;2.40;99.90;;;;;;5115998;27;20051;-80
2022/01/06 02:18:45;;;;;;;20.25;3.03;;;1.60;99.90;;;;;;5128592;27;20043;-80
2022/01/06 02:21:11;;;;;;;13.30;2.30;;;2.30;99.90;;;;;;5137040;27;20497;-81
2022/01/06 02:23:37;;;;;;;18.67;2.83;;;1.50;99.90;;;;;;5103469;27;20065;-80
2022/01/06 02:26:02;;;;;;;27.15;3.17;;;1.50;99.90;;;;;;5155985;27;20046;-81
2022/01/06 02:28:28;;;;;;;16.50;2.42;;;1.50;99.90;;;;;;5135565;27;20103;-81
2022/01/06 02:30:55;;;;;;;23.05;3.70;;;1.50;99.90;;;;;;5119527;27;20101;-80
2022/01/06 02:33:21;;;;;;;16.33;2.40;;;1.40;99.90;;;;;;5119927;27;20046;-81
2022/01/06 02:35:48;;;;;;;26.23;3.20;;;1.40;99.90;;;;;;5110341;27;20062;-81
2022/01/06 02:38:15;;;;;;;21.25;2.53;;;1.80;99.90;;;;;;5116133;27;20085;-80
2022/01/06 02:40:40;;;;;;;16.27;2.38;;;1.40;99.90;;;;;;5133287;27;20157;-81
2022/01/06 02:43:07;;;;;;;25.02;3.22;;;1.30;99.90;;;;;;5136817;27;20058;-80
2022/01/06 02:45:35;;;;;;;21.77;3.78;;;1.50;99.90;;;;;;5136026;27;20062;-81
2022/01/06 02:48:08;;;;;;;18.52;2.47;;;1.40;99.90;;;;;;5102704;27;20050;-80
2022/01/06 02:50:36;;;;;;;20.02;3.05;;;1.40;99.90;;;;;;5118660;27;20499;-80
2022/01/06 02:53:02;;;;;;;19.88;2.70;;;1.40;99.90;;;;;;5136381;27;20580;-80
2022/01/06 02:55:28;;;;;;;26.15;4.10;;;1.40;99.90;;;;;;5136237;27;20054;-81
2022/01/06 02:57:53;;;;;;;24.17;3.67;;;1.40;99.90;;;;;;5136591;27;20043;-81
2022/01/06 03:00:19;;;;;;;24.98;3.10;;;1.40;99.90;;;;;;5135379;27;20566;-81
2022/01/06 03:02:46;;;;;;;24.38;3.25;;;1.60;99.90;;;;;;5136485;27;20038;-80
2022/01/06 03:05:13;;;;;;;26.63;2.95;;;2.00;99.90;;;;;;5119378;27;20055;-81
2022/01/06 03:07:39;;;;;;;13.60;2.65;;;1.30;99.90;;;;;;5103792;27;20050;-81
2022/01/06 03:10:09;;;;;;;14.60;2.35;;;2.00;99.90;;;;;;5133260;27;20043;-80
2022/01/06 03:12:41;;;;;;;23.80;3.72;;;1.30;99.90;;;;;;5135165;27;20054;-81
2022/01/06 03:15:09;;;;;;;16.52;2.38;;;1.30;99.90;;;;;;5135538;27;20377;-81
2022/01/06 03:17:36;;;;;;;22.10;3.25;;;1.70;99.90;;;;;;5150404;27;20053;-80
2022/01/06 03:20:04;;;;;;;20.60;3.28;;;1.40;99.90;;;;;;5157376;27;20482;-80
2022/01/06 03:22:30;;;;;;;15.98;2.17;;;1.40;99.90;;;;;;5156767;27;20133;-81
2022/01/06 03:24:56;;;;;;;17.95;2.30;;;1.40;99.90;;;;;;5139657;27;20133;-81
2022/01/06 03:27:22;;;;;;;33.53;3.90;;;1.40;99.90;;;;;;5156499;27;20396;-81
2022/01/06 03:29:49;;;;;;;14.60;2.53;;;1.60;99.90;;;;;;5131660;27;20072;-81
2022/01/06 03:32:16;;;;;;;12.48;2.10;;;2.20;99.90;;;;;;5156205;27;20050;-81
2022/01/06 03:34:42;;;;;;;26.23;2.88;;;1.50;99.90;;;;;;5118230;27;20046;-81
2022/01/06 03:37:08;;;;;;;15.15;3.85;;;1.80;99.90;;;;;;5115837;27;20065;-80
2022/01/06 03:39:33;;;;;;;24.10;3.67;;;1.70;99.90;;;;;;5110582;27;20076;-81
2022/01/06 03:41:59;;;;;;;15.10;2.13;;;1.70;99.90;;;;;;5135785;27;20074;-81
2022/01/06 03:44:25;;;;;;;16.92;2.13;;;2.40;99.90;;;;;;5149663;27;20038;-80
2022/01/06 03:46:53;;;;;;;11.90;2.10;;;1.70;99.90;;;;;;5155938;27;20035;-80
2022/01/06 03:49:19;;;;;;;14.43;3.10;;;1.70;99.90;;;;;;5139998;27;20084;-81
2022/01/06 03:51:46;;;;;;;12.70;2.50;;;1.70;99.90;;;;;;5112589;27;20057;-80
2022/01/06 03:54:12;;;;;;;13.02;2.30;;;1.70;99.90;;;;;;5115131;27;20437;-80
2022/01/06 03:56:38;;;;;;;17.85;2.90;;;1.70;99.90;;;;;;5114594;27;20105;-81
2022/01/06 03:59:03;;;;;;;18.58;2.85;;;2.20;99.90;;;;;;5131925;27;20459;-81
2022/01/06 04:01:29;;;;;;;20.13;2.70;;;1.60;99.90;;;;;;5155036;27;20042;-81
2022/01/06 04:03:55;;;;;;;19.10;3.08;;;1.60;99.90;;;;;;5155699;27;20050;-80
2022/01/06 04:06:20;;;;;;;14.85;2.22;;;2.20;99.90;;;;;;5133891;27;20042;-80
2022/01/06 04:08:46;;;;;;;17.15;2.97;;;2.10;99.90;;;;;;5129043;27;20043;-81
2022/01/06 04:11:12;;;;;;;14.52;3.00;;;1.50;99.90;;;;;;5098018;27;20062;-81
2022/01/06 04:13:38;;;;;;;20.15;2.90;;;1.50;99.90;;;;;;5129829;27;20047;-80
2022/01/06 04:16:08;;;;;;;18.20;2.30;;;1.40;99.90;;;;;;5131764;27;20058;-80
2022/01/06 04:18:34;;;;;;;19.27;2.38;;;1.40;99.90;;;;;;5134634;27;20265;-81
2022/01/06 04:20:59;;;;;;;16.25;2.33;;;1.30;99.90;;;;;;5118563;27;20182;-80
2022/01/06 04:23:25;;;;;;;20.83;3.38;;;1.40;99.90;;;;;;5138098;27;20050;-81
2022/01/06 04:25:51;;;;;;;23.98;3.67;;;1.50;99.90;;;;;;5155683;27;20046;-81
2022/01/06 04:28:17;;;;;;;14.68;2.20;;;1.40;99.90;;;;;;5155506;27;20050;-80
2022/01/06 04:30:42;;;;;;;16.85;2.35;;;1.90;99.90;;;;;;5153514;27;20054;-80
2022/01/06 04:33:08;;;;;;;14.52;2.30;;;1.10;99.90;;;;;;5155920;27;20050;-80
2022/01/06 04:35:34;;;;;;;21.60;3.08;;;1.10;99.90;;;;;;5135965;27;20125;-81
2022/01/06 04:37:59;;;;;;;28.90;6.28;;;1.10;99.90;;;;;;5117921;27;20049;-80
2022/01/06 04:40:25;;;;;;;21.23;3.38;;;1.00;99.90;;;;;;5148144;27;20041;-81
2022/01/06 04:42:51;;;;;;;14.93;2.15;;;1.00;99.90;;;;;;5154939;27;20397;-80
2022/01/06 04:45:16;;;;;;;19.75;2.90;;;0.90;99.90;;;;;;5154583;27;20054;-80
2022/01/06 04:47:42;;;;;;;13.88;2.45;;;0.80;99.90;;;;;;5154677;27;20045;-80
2022/01/06 04:50:08;;;;;;;18.45;2.95;;;0.70;99.90;;;;;;5119626;27;20478;-80
2022/01/06 04:52:34;;;;;;;13.10;2.10;;;0.60;99.90;;;;;;5152621;27;20130;-81
2022/01/06 04:54:59;;;;;;;15.05;2.00;;;0.60;99.90;;;;;;5117286;27;20038;-81
2022/01/06 04:57:25;;;;;;;19.75;2.67;;;0.50;99.90;;;;;;5117173;27;20311;-81
2022/01/06 04:59:51;;;;;;;24.75;3.70;;;0.40;99.90;;;;;;5115326;27;20050;-80
2022/01/06 05:02:17;;;;;;;20.77;2.53;;;0.30;99.90;;;;;;5134274;27;20042;-80
2022/01/06 05:04:43;;;;;;;22.27;2.55;;;0.30;99.90;;;;;;5113653;27;20449;-80
2022/01/06 05:07:08;;;;;;;15.43;2.15;;;0.30;99.90;;;;;;5133993;27;20487;-80
2022/01/06 05:09:34;;;;;;;18.95;4.63;;;0.20;99.90;;;;;;5121508;27;20038;-80
2022/01/06 05:12:00;;;;;;;14.65;2.28;;;0.20;99.90;;;;;;5155313;27;20038;-80
2022/01/06 05:14:26;;;;;;;15.20;2.17;;;0.40;99.90;;;;;;5136233;27;20042;-80
2022/01/06 05:16:51;;;;;;;;;;;0.10;99.90;;;;;;5127134;27;20043;-80
2022/01/06 05:19:17;;;;;;;14.60;2.80;;;0.00;99.90;;;;;;5128978;27;19963;-80
2022/01/06 05:21:43;;;;;;;16.23;2.83;;;-0.10;99.90;;;;;;5138683;27;20042;-80
2022/01/06 05:24:16;;;;;;;19.13;2.97;;;-0.10;99.90;;;;;;5137622;27;20049;-80
2022/01/06 05:26:42;;;;;;;10.18;1.92;;;-0.20;99.90;;;;;;5154388;27;20104;-80
2022/01/06 05:29:09;;;;;;;;;;;-0.30;99.90;;;;;;5136225;27;20440;-80
2022/01/06 05:31:35;;;;;;;7.13;2.05;;;-0.40;99.90;;;;;;5149822;27;19923;-81
2022/01/06 05:34:01;;;;;;;16.42;2.55;;;-0.50;99.90;;;;;;5122991;27;20054;-81
2022/01/06 05:36:27;;;;;;;15.60;2.28;;;-0.50;99.90;;;;;;5133371;27;20062;-80
2022/01/06 05:38:52;;;;;;;17.42;2.78;;;-0.50;99.90;;;;;;5136920;27;20050;-80
2022/01/06 05:41:18;;;;;;;18.13;3.70;;;-0.50;99.90;;;;;;5117074;27;20499;-80
2022/01/06 05:43:44;;;;;;;24.27;2.55;;;-0.50;99.90;;;;;;5132239;27;20058;-81
2022/01/06 05:46:09;;;;;;;20.85;2.67;;;-0.50;99.90;;;;;;5141595;27;20046;-80
2022/01/06 05:48:35;;;;;;;19.45;2.63;;;-0.50;99.90;;;;;;5132956;27;20043;-80
2022/01/06 05:51:01;;;;;;;24.50;3.42;;;-0.40;99.90;;;;;;5133707;27;20047;-81
2022/01/06 05:53:28;;;;;;;16.45;2.92;;;-0.40;99.90;;;;;;5116725;27;20039;-81
2022/01/06 05:55:53;;;;;;;29.00;3.10;;;-0.40;99.90;;;;;;5133571;27;20051;-80
2022/01/06 05:58:19;;;;;;;18.83;2.35;;;-0.40;99.90;;;;;;5127305;27;20193;-80
2022/01/06 06:00:45;;;;;;;13.80;2.35;;;-0.40;99.90;;;;;;5133236;27;20034;-80
2022/01/06 06:03:10;;;;;;;18.58;2.67;;;-0.40;99.90;;;;;;5102498;28;20385;-80
2022/01/06 06:05:36;;;;;;;25.90;3.45;;;-0.10;99.90;;;;;;5112621;28;20057;-81
2022/01/06 06:08:02;;;;;;;14.13;2.22;;;-0.50;99.90;;;;;;5130044;28;20049;-80
2022/01/06 06:10:28;;;;;;;21.42;2.65;;;-0.50;99.90;;;;;;5135343;27;20047;-80
2022/01/06 06:12:53;;;;;;;17.73;2.33;;;-0.50;99.90;;;;;;5132562;27;20043;-80
2022/01/06 06:15:20;;;;;;;25.05;2.65;;;-0.50;99.90;;;;;;5108940;27;20485;-80
2022/01/06 06:17:46;;;;;;;30.00;3.67;;;-0.50;99.90;;;;;;5119305;27;20054;-81
2022/01/06 06:20:12;;;;;;;;;;;-0.50;99.90;;;;;;5152789;27;20050;-80
2022/01/06 06:22:38;;;;;;;17.52;2.30;;;-0.50;99.90;;;;;;5146714;27;20164;-81
2022/01/06 06:25:05;;;;;;;17.77;2.10;;;0.40;99.90;;;;;;5154132;27;20094;-81
2022/01/06 06:27:31;;;;;;;15.85;2.47;;;-0.60;99.90;;;;;;5136753;27;20046;-81
2022/01/06 06:29:56;;;;;;;23.40;3.85;;;-0.60;99.90;;;;;;5124898;27;20050;-80
2022/01/06 06:32:22;;;;;;;11.55;2.42;;;-0.10;99.90;;;;;;5112740;28;20496;-81
2022/01/06 06:34:48;;;;;;;20.95;3.25;;;-0.60;99.90;;;;;;5132625;27;20047;-82
2022/01/06 06:37:14;;;;;;;37.55;15.13;;;-0.60;99.90;;;;;;5133862;27;20050;-82
2022/01/06 06:39:39;;;;;;;24.65;2.70;;;-0.60;99.90;;;;;;5148699;27;20046;-82
2022/01/06 06:42:05;;;;;;;23.75;3.13;;;-0.50;99.90;;;;;;5116433;27;20106;-82
2022/01/06 06:44:31;;;;;;;19.60;2.58;;;-0.40;99.90;;;;;;5132040;27;20054;-82
2022/01/06 06:46:56;;;;;;;13.98;2.17;;;-0.40;99.90;;;;;;5132609;27;20047;-82
2022/01/06 06:49:22;;;;;;;14.70;2.47;;;-0.40;99.90;;;;;;5135559;27;20049;-82
2022/01/06 06:51:48;;;;;;;24.58;3.85;;;-0.40;99.90;;;;;;5119645;27;20042;-81
2022/01/06 06:54:14;;;;;;;19.05;2.70;;;-0.30;99.90;;;;;;5136364;27;20042;-82
2022/01/06 06:56:43;;;;;;;16.92;2.42;;;-0.30;99.90;;;;;;5119379;27;20046;-82
2022/01/06 06:59:09;;;;;;;14.68;2.35;;;-0.30;99.90;;;;;;5154495;27;20536;-82
2022/01/06 07:01:35;;;;;;;18.23;2.95;;;-0.30;99.90;;;;;;5175194;27;20043;-82
2022/01/06 07:04:01;;;;;;;22.48;2.80;;;-0.20;99.90;;;;;;5151005;27;20115;-82
2022/01/06 07:06:26;;;;;;;27.65;3.35;;;-0.30;99.90;;;;;;5137008;27;20095;-82
2022/01/06 07:08:52;;;;;;;20.15;3.83;;;-0.30;99.90;;;;;;5136103;27;20053;-82
2022/01/06 07:11:18;;;;;;;13.25;2.05;;;-0.30;99.90;;;;;;5102817;27;20605;-82
2022/01/06 07:13:43;;;;;;;14.30;2.33;;;-0.40;99.90;;;;;;5132319;27;20035;-82
2022/01/06 07:16:09;;;;;;;17.05;1.92;;;0.00;99.90;;;;;;5136440;27;20419;-82
2022/01/06 07:18:35;;;;;;;14.88;2.30;;;-0.50;99.90;;;;;;5101910;27;20047;-82
2022/01/06 07:21:00;;;;;;;23.10;2.85;;;0.20;99.90;;;;;;5136525;27;20072;-82
2022/01/06 07:23:26;;;;;;;11.85;2.28;;;-0.60;99.90;;;;;;5136320;27;20479;-82
2022/01/06 07:25:52;;;;;;;13.57;2.33;;;0.20;99.90;;;;;;5135715;27;20479;-82
2022/01/06 07:28:17;;;;;;;12.60;2.47;;;-0.60;99.90;;;;;;5135676;27;20039;-82
2022/01/06 07:30:44;;;;;;;14.23;2.67;;;-0.70;99.90;;;;;;5116129;27;20149;-82
2022/01/06 07:33:09;;;;;;;23.33;3.75;;;-0.70;99.90;;;;;;5137658;27;20448;-82
2022/01/06 07:35:35;;;;;;;20.73;2.63;;;-0.80;99.90;;;;;;5091173;27;20093;-82
2022/01/06 07:38:01;;;;;;;16.33;3.03;;;-0.80;99.90;;;;;;5098279;27;20043;-82
2022/01/06 07:40:27;;;;;;;15.40;2.70;;;-0.50;99.90;;;;;;5138586;27;20167;-83
2022/01/06 07:42:52;;;;;;;14.90;2.55;;;-1.00;99.90;;;;;;5135143;27;20043;-82
2022/01/06 07:45:19;;;;;;;18.77;2.88;;;-0.10;99.90;;;;;;5135237;27;20057;-82
2022/01/06 07:47:57;;;;;;;20.23;2.83;;;-0.40;99.90;;;;;;5135129;27;20058;-82
2022/01/06 07:50:31;;;;;;;11.18;2.00;;;-0.90;99.90;;;;;;5135865;27;20578;-81
2022/01/06 07:52:58;;;;;;;10.27;2.20;;;-1.20;99.90;;;;;;5135290;27;20066;-81
2022/01/06 07:55:23;;;;;;;;;;;-1.20;99.90;;;;;;5123443;27;20054;-81
2022/01/06 07:57:50;;;;;;;11.27;1.98;;;-1.20;99.90;;;;;;5141580;27;19930;-81
2022/01/06 08:00:17;;;;;;;20.13;2.63;;;-1.30;99.90;;;;;;5116817;27;20049;-82
2022/01/06 08:02:45;;;;;;;20.70;3.13;;;-0.50;99.90;;;;;;5117768;27;20045;-82
2022/01/06 08:05:13;;;;;;;19.45;3.22;;;-1.20;99.90;;;;;;5136037;27;20090;-82
2022/01/06 08:07:39;;;;;;;22.58;3.28;;;-1.00;99.90;;;;;;5135430;27;20090;-83
2022/01/06 08:10:07;;;;;;;10.73;2.45;;;-1.20;99.90;;;;;;5140103;27;20039;-82
2022/01/06 08:12:33;;;;;;;16.83;2.40;;;-1.20;99.90;;;;;;5134228;27;20494;-82
2022/01/06 08:14:59;;;;;;;16.60;3.10;;;-1.10;99.90;;;;;;5137489;27;20591;-82
2022/01/06 08:17:25;;;;;;;16.75;3.03;;;-1.10;99.90;;;;;;5138724;27;20049;-82
2022/01/06 08:19:52;;;;;;;15.02;2.45;;;-0.20;99.90;;;;;;5130082;27;20057;-82
2022/01/06 08:22:19;;;;;;;16.92;3.33;;;-1.00;99.90;;;;;;5098009;27;20056;-82
2022/01/06 08:24:44;;;;;;;14.95;3.00;;;-1.00;99.90;;;;;;5113882;27;20075;-82
2022/01/06 08:27:10;;;;;;;19.10;2.80;;;-0.20;99.90;;;;;;5114900;27;20112;-81
2022/01/06 08:29:40;;;;;;;12.90;2.55;;;-0.90;99.90;;;;;;5102596;27;20074;-82
2022/01/06 08:32:07;;;;;;;16.92;2.60;;;-0.90;99.90;;;;;;5130519;27;20042;-82
2022/01/06 08:34:34;;;;;;;16.83;2.50;;;-0.80;99.90;;;;;;5135222;27;20038;-82
2022/01/06 08:37:00;;;;;;;17.50;2.92;;;-0.80;99.90;;;;;;5134630;27;20237;-82
2022/01/06 08:39:26;;;;;;;22.42;2.97;;;0.00;99.90;;;;;;5117854;27;20534;-82
2022/01/06 08:41:53;;;;;;;16.75;2.70;;;-0.80;99.90;;;;;;5133942;27;20096;-82
2022/01/06 08:44:20;;;;;;;13.98;2.67;;;-0.80;99.90;;;;;;5116178;27;20057;-81
2022/01/06 08:46:47;;;;;;;19.90;3.15;;;-0.70;99.90;;;;;;5127687;27;20472;-82
2022/01/06 08:49:15;;;;;;;21.73;2.72;;;-0.70;99.90;;;;;;5131476;27;20053;-82
2022/01/06 08:51:41;;;;;;;29.83;3.33;;;-0.70;99.90;;;;;;5134818;27;20055;-82
2022/01/06 08:54:06;;;;;;;;;;;-0.60;99.90;;;;;;5134212;27;20086;-82
2022/01/06 08:56:33;;;;;;;24.95;3.05;;;-0.60;99.90;;;;;;5102274;27;19977;-82
2022/01/06 08:58:59;;;;;;;20.52;3.17;;;-0.50;99.90;;;;;;5123761;27;20086;-82
2022/01/06 09:01:25;;;;;;;19.10;2.95;;;-0.50;99.90;;;;;;5123748;27;20129;-82
2022/01/06 09:03:51;;;;;;;;;;;-0.50;99.90;;;;;;5127046;27;20547;-82
2022/01/06 09:06:16;;;;;;;26.95;3.67;;;-0.40;99.90;;;;;;5129405;27;19919;-83
2022/01/06 09:08:42;;;;;;;19.48;2.85;;;-0.10;99.90;;;;;;5112613;27;20072;-82
2022/01/06 09:11:08;;;;;;;20.52;3.45;;;-0.20;99.90;;;;;;5107311;27;20092;-82
2022/01/06 09:13:33;;;;;;;23.13;3.85;;;-0.20;99.90;;;;;;5128971;27;20045;-83
2022/01/06 09:15:59;;;;;;;24.95;3.60;;;-0.20;99.90;;;;;;5111587;27;20463;-81
2022/01/06 09:18:25;;;;;;;19.52;3.55;;;0.40;99.90;;;;;;5131147;27;20373;-81
2022/01/06 09:20:51;;;;;;;16.48;2.50;;;0.00;99.90;;;;;;5125036;27;20246;-81
2022/01/06 09:23:17;;;;;;;15.93;2.65;;;0.00;99.90;;;;;;5115103;27;20535;-81
2022/01/06 09:25:43;;;;;;;29.85;4.20;;;0.90;99.90;;;;;;5092725;27;20506;-81
2022/01/06 09:28:09;;;;;;;;;;;0.90;99.90;;;;;;5116186;27;20050;-81
2022/01/06 09:30:36;;;;;;;24.27;4.20;;;0.10;99.90;;;;;;5116135;27;19923;-81
2022/01/06 09:33:03;;;;;;;16.02;3.35;;;0.20;99.90;;;;;;5117012;27;20496;-81
2022/01/06 09:35:29;;;;;;;20.65;4.15;;;0.20;99.90;;;;;;5097418;28;20043;-81
2022/01/06 09:37:55;;;;;;;16.88;3.00;;;0.30;99.90;;;;;;5123740;27;20090;-81
2022/01/06 09:40:21;;;;;;;21.52;3.40;;;0.30;99.90;;;;;;5096380;27;20039;-81
2022/01/06 09:42:46;;;;;;;18.88;4.45;;;0.70;99.90;;;;;;5126495;27;20507;-81
2022/01/06 09:45:13;;;;;;;18.83;2.60;;;0.40;99.90;;;;;;5117825;27;20126;-80
2022/01/06 09:47:40;;;;;;;16.88;2.78;;;0.70;99.90;;;;;;5086559;28;20450;-77
2022/01/06 09:50:08;;;;;;;18.83;3.83;;;0.50;99.90;;;;;;5123955;28;20043;-81
2022/01/06 09:52:34;;;;;;;24.00;3.95;;;0.60;99.90;;;;;;5127348;28;20049;-81
2022/01/06 09:55:03;;;;;;;21.55;3.60;;;0.80;99.90;;;;;;5143802;27;20118;-81
2022/01/06 09:57:29;;;;;;;26.85;3.63;;;0.70;99.90;;;;;;5109341;28;20054;-81
2022/01/06 09:59:55;;;;;;;29.95;3.72;;;0.70;99.90;;;;;;5124919;28;20508;-81
2022/01/06 10:02:21;;;;;;;18.98;3.30;;;0.80;99.90;;;;;;5141042;27;20051;-81
2022/01/06 10:04:58;;;;;;;26.65;4.13;;;0.80;99.90;;;;;;5131090;27;20103;-81
2022/01/06 10:07:24;;;;;;;22.42;3.50;;;0.90;99.90;;;;;;5141086;27;20054;-81
2022/01/06 10:09:50;;;;;;;22.02;5.13;;;1.00;99.90;;;;;;5146346;27;20039;-81
2022/01/06 10:12:16;;;;;;;;;;;1.30;99.90;;;;;;5132890;27;20057;-81
2022/01/06 10:14:50;;;;;;;21.42;5.50;;;1.10;99.90;;;;;;5132002;27;19919;-81
2022/01/06 10:17:30;;;;;;;22.42;3.85;;;1.10;99.90;;;;;;5098557;27;20059;-81
2022/01/06 10:19:56;;;;;;;24.10;4.82;;;1.10;99.90;;;;;;5114724;28;20059;-81
2022/01/06 10:22:22;;;;;;;23.05;3.75;;;1.20;99.90;;;;;;5105308;28;20444;-81
2022/01/06 10:24:50;;;;;;;;;;;1.30;99.90;;;;;;5134719;27;20043;-81
2022/01/06 10:27:18;;;;;;;26.08;4.57;;;1.40;99.90;;;;;;5133043;27;19931;-75
2022/01/06 10:29:46;;;;;;;17.95;4.07;;;1.50;99.90;;;;;;5134287;27;20067;-75
2022/01/06 10:32:25;;;;;;;20.60;5.72;;;1.50;99.90;;;;;;5135634;27;20051;-80
2022/01/06 10:35:02;;;;;;;20.15;4.05;;;1.70;99.90;;;;;;5116381;27;20054;-76
2022/01/06 10:37:38;;;;;;;24.63;3.83;;;1.70;99.90;;;;;;5117449;27;20479;-79
2022/01/06 10:40:09;;;;;;;21.73;4.93;;;1.80;99.90;;;;;;5125130;27;20049;-80
2022/01/06 10:42:37;;;;;;;25.35;3.70;;;1.90;99.90;;;;;;5119016;27;20039;-80
2022/01/06 10:45:12;;;;;;;29.73;4.53;;;2.00;99.90;;;;;;5115255;27;20138;-79
2022/01/06 10:47:43;;;;;;;30.02;3.50;;;2.00;99.90;;;;;;5109463;27;20107;-78
2022/01/06 10:50:21;;;;;;;20.88;3.55;;;2.40;99.90;;;;;;5120798;27;20055;-81
2022/01/06 10:52:53;;;;;;;22.10;3.65;;;2.20;99.90;;;;;;5129037;27;20107;-79
2022/01/06 10:55:21;;;;;;;20.90;4.00;;;2.40;99.90;;;;;;5125712;27;20119;-79
2022/01/06 10:57:53;;;;;;;17.98;3.15;;;2.40;99.90;;;;;;5118408;27;20491;-79
2022/01/06 11:00:21;;;;;;;30.73;4.47;;;2.60;99.90;;;;;;5111937;27;20077;-79
2022/01/06 11:02:46;;;;;;;30.65;4.47;;;2.70;99.90;;;;;;5123585;27;20100;-80
2022/01/06 11:05:12;;;;;;;18.90;3.47;;;2.80;99.90;;;;;;5102385;27;20054;-80
2022/01/06 11:07:38;;;;;;;25.75;3.47;;;3.00;99.90;;;;;;5132869;27;20074;-79
2022/01/06 11:10:14;;;;;;;25.58;4.45;;;3.30;99.90;;;;;;5121781;27;20046;-80
2022/01/06 11:12:40;;;;;;;22.63;3.00;;;3.20;99.90;;;;;;5136245;27;20047;-79
2022/01/06 11:15:07;;;;;;;18.60;3.45;;;3.50;99.90;;;;;;5135229;27;20113;-80
2022/01/06 11:17:33;;;;;;;17.98;3.55;;;3.50;99.90;;;;;;5135987;27;20046;-81
2022/01/06 11:19:59;;;;;;;18.48;3.17;;;3.90;99.90;;;;;;5126743;27;20373;-83
2022/01/06 11:22:26;;;;;;;14.23;2.60;;;3.80;99.90;;;;;;5132405;27;20038;-81
2022/01/06 11:25:03;;;;;;;13.00;2.55;;;4.00;99.90;;;;;;5128959;27;20035;-80
2022/01/06 11:27:30;;;;;;;;;;;4.30;99.90;;;;;;5115998;27;20107;-82
2022/01/06 11:30:08;;;;;;;20.48;2.80;;;4.70;99.90;;;;;;5113966;27;19927;-81
2022/01/06 11:32:33;;;;;;;17.35;2.75;;;5.10;99.90;;;;;;5133293;27;20066;-81
2022/01/06 11:35:11;;;;;;;15.77;2.60;;;5.40;99.90;;;;;;5098122;27;20507;-82
2022/01/06 11:37:48;;;;;;;17.00;2.83;;;5.50;99.90;;;;;;5115105;27;20500;-83
2022/01/06 11:40:27;;;;;;;22.33;3.38;;;5.70;99.90;;;;;;5125327;27;20042;-81
2022/01/06 11:42:54;;;;;;;14.65;2.50;;;5.90;99.90;;;;;;5150924;27;20051;-79
2022/01/06 11:45:20;;;;;;;13.35;2.65;;;6.10;99.90;;;;;;5153828;27;20046;-77
2022/01/06 11:47:46;;;;;;;11.85;2.47;;;6.20;99.90;;;;;;5156465;27;20048;-78
2022/01/06 11:50:24;;;;;;;17.00;3.08;;;6.40;99.90;;;;;;5112793;27;20578;-79
2022/01/06 11:52:51;;;;;;;13.25;2.42;;;6.50;99.90;;;;;;5113422;27;20053;-78
2022/01/06 11:55:17;;;;;;;14.25;2.78;;;6.60;99.90;;;;;;5108019;27;20051;-78
2022/01/06 11:57:44;;;;;;;;;;;6.60;99.90;;;;;;5131100;27;20070;-79
2022/01/06 12:00:15;;;;;;;15.93;2.88;;;6.80;99.90;;;;;;5128943;27;19919;-79
2022/01/06 12:02:42;;;;;;;17.75;2.78;;;6.90;99.90;;;;;;5126033;27;20035;-78
2022/01/06 12:05:08;;;;;;;11.10;2.28;;;7.00;99.90;;;;;;5102997;27;20047;-80
2022/01/06 12:07:34;;;;;;;15.05;3.08;;;7.00;99.90;;;;;;5105005;27;20047;-80
2022/01/06 12:10:07;;;;;;;14.82;2.33;;;7.10;99.90;;;;;;5109697;27;20035;-80
2022/01/06 12:12:35;;;;;;;12.82;2.60;;;7.30;99.90;;;;;;5109061;27;20043;-79
2022/01/06 12:15:17;;;;;;;13.55;2.60;;;7.50;99.90;;;;;;5130519;27;20088;-79
2022/01/06 12:17:47;;;;;;;12.93;2.88;;;7.60;99.90;;;;;;5132869;27;20090;-80
2022/01/06 12:20:19;;;;;;;18.48;3.03;;;7.80;99.90;;;;;;5130887;27;20039;-79
2022/01/06 12:22:45;;;;;;;16.95;2.97;;;7.90;99.90;;;;;;5132977;27;20051;-80
2022/01/06 12:25:10;;;;;;;10.82;2.53;;;7.90;99.90;;;;;;5103779;27;20039;-78
2022/01/06 12:27:52;;;;;;;14.43;2.80;;;7.90;99.90;;;;;;5099084;27;20249;-79
2022/01/06 12:30:20;;;;;;;14.25;2.88;;;7.90;99.90;;;;;;5111679;27;20057;-79
2022/01/06 12:33:19;;;;;;;10.00;2.90;;;8.00;99.90;;;;;;5115256;27;20094;-79
2022/01/06 12:35:56;;;;;;;15.00;2.53;;;8.00;99.90;;;;;;5132047;27;20113;-79
2022/01/06 12:38:31;;;;;;;12.73;2.72;;;8.10;99.90;;;;;;5112092;27;20089;-79
2022/01/06 12:40:57;;;;;;;14.20;2.83;;;8.30;99.90;;;;;;5114358;27;20069;-79
2022/01/06 12:43:28;;;;;;;17.38;3.17;;;8.40;99.90;;;;;;5129092;27;20057;-77
2022/01/06 12:46:13;;;;;;;13.70;2.72;;;8.40;99.90;;;;;;5132909;27;20078;-77
2022/01/06 12:48:41;;;;;;;17.20;3.30;;;8.40;99.90;;;;;;5133616;27;20129;-77
2022/01/06 12:51:10;;;;;;;13.77;2.90;;;8.40;99.90;;;;;;5133894;27;20398;-77
2022/01/06 12:53:44;;;;;;;12.82;2.70;;;8.50;99.90;;;;;;5134185;27;20149;-78
2022/01/06 12:56:29;;;;;;;12.10;2.85;;;8.60;99.90;;;;;;5134042;27;20049;-81